GCLA/SPC METAR and TAF weather

Enter ICAO airport designator
Station Type Date Time Source
GCLA METAR 2020/04/04 21:30 UTC NOAA

GCLA 042130Z AUTO 23003KT 200V260 9999 FEW026 20/16 Q1015


Station Type Date Time Source
GCLA Decoded METAR 2020/04/04 21:30 UTC NOAA

La Palma / Aeropuerto, Spain (GCLA) 28-37N 017-45W 31M
Apr 04, 2020 - 05:30 PM EDT / 2020.04.04 2130 UTC
Wind: from the SW (230 degrees) at 3 MPH (3 KT) (direction variable):0
Visibility: greater than 7 mile(s):0
Sky conditions: mostly clear
Temperature: 68 F (20 C)
Dew Point: 60 F (16 C)
Relative Humidity: 77%
Pressure (altimeter): 29.97 in. Hg (1015 hPa)
ob: GCLA 042130Z AUTO 23003KT 200V260 9999 FEW026 20/16 Q1015
cycle: 21

Station Type Date Time Source
GCLA TAF 2020/04/04 21:30 UTC NOAA

TAF GCLA 042000Z 0421/0521 30004KT 9999 SCT035 TX24/0514Z TN18/0506Z

Example: see airport list